Truesdail, Missouri
Current Conditions -  °F | °C
As of 8:55 PM on Friday 21 Nov 2014 (Local Time) from KFYG Reporting Station
Light Rain Light Rain  
Wind Chill: 35°   Ceiling: 2100
Heat Index: 41°   Visibility: 10mi
Dew Point: 34°   Wind: 10mph
Humidity: 76%   Direction: 130°SE
Pressure: 30.21"   Gusts: NA
Location:  38.7835°N, 91.2441°W
Report Text: KFYG 220255Z AUTO 13009KT 10SM -RA OVC021 05/01 A3021 RMK AO2
Loading
Personal Weather Stations






























Interactive Weather Map New forecast layout! Learn more

10-Day Weather Forecast

Advertisements
Track Severe Weather on mobile